Time;durP1;ratioP1;P1;durP2;ratioP2;P2;SDS_P1;SDS_P2;PMS_P1;PMS_P2;Temp;Humidity;BMP_temperature;BMP_pressure;BME280_temperature;BME280_humidity;BME280_pressure;Samples;Min_cycle;Max_cycle;Signal;HPM_P1;HPM_P2
2022/04/10 00:00:13;;;;;;;2.63;2.10;;;17.10;52.30;18.00;100957.00;;;;5069606;28;20361;-50
2022/04/10 00:02:39;;;;;;;3.20;1.83;;;17.10;52.50;18.00;100955.00;;;;5068709;28;20165;-49
2022/04/10 00:05:05;;;;;;;2.13;1.80;;;17.00;52.50;17.90;100946.00;;;;5068875;28;20879;-49
2022/04/10 00:07:31;;;;;;;2.20;2.00;;;17.00;52.50;17.90;100959.00;;;;5068266;28;20170;-47
2022/04/10 00:09:57;;;;;;;1.83;1.73;;;17.00;52.50;17.90;100970.00;;;;5068806;28;20196;-48
2022/04/10 00:12:22;;;;;;;2.70;2.00;;;16.90;52.50;17.90;100966.00;;;;5069026;28;20167;-48
2022/04/10 00:14:48;;;;;;;2.17;1.97;;;16.90;52.50;17.80;100969.00;;;;5068822;28;20185;-49
2022/04/10 00:17:14;;;;;;;2.07;1.80;;;16.90;52.60;17.80;100972.00;;;;5068314;28;20185;-48
2022/04/10 00:19:41;;;;;;;2.33;2.00;;;16.80;52.50;17.80;100970.00;;;;5068217;28;20206;-48
2022/04/10 00:22:07;;;;;;;2.60;2.00;;;16.80;52.60;17.80;100959.00;;;;5066860;28;20173;-48
2022/04/10 00:24:33;;;;;;;2.00;1.90;;;16.80;52.60;17.70;100965.00;;;;5068377;28;20631;-48
2022/04/10 00:26:59;;;;;;;2.00;1.87;;;16.80;52.60;17.70;100972.00;;;;5068072;28;20177;-48
2022/04/10 00:29:24;;;;;;;2.23;2.03;;;16.80;52.60;17.70;100973.00;;;;5068373;28;20161;-48
2022/04/10 00:31:51;;;;;;;2.03;1.80;;;16.70;52.60;17.70;100964.00;;;;5068564;28;20166;-48
2022/04/10 00:34:16;;;;;;;1.80;1.70;;;16.70;52.60;17.60;100968.00;;;;5068253;28;20497;-48
2022/04/10 00:36:42;;;;;;;1.90;1.80;;;16.70;52.70;17.60;100961.00;;;;5067743;28;20185;-48
2022/04/10 00:39:08;;;;;;;2.60;1.90;;;16.60;52.70;17.60;100967.00;;;;5068362;28;20184;-48
2022/04/10 00:41:34;;;;;;;2.80;1.83;;;16.70;52.80;17.60;100965.00;;;;5069012;28;20351;-48
2022/04/10 00:44:08;;;;;;;2.20;1.87;;;16.60;52.70;17.50;100962.00;;;;5067937;28;20181;-48
2022/04/10 00:46:34;;;;;;;1.90;1.80;;;16.60;52.80;17.50;100971.00;;;;5067939;28;20184;-48
2022/04/10 00:49:00;;;;;;;1.80;1.70;;;16.60;52.80;17.60;100967.00;;;;5050130;28;20185;-48
2022/04/10 00:51:41;;;;;;;1.87;1.70;;;16.70;52.60;17.60;100969.00;;;;5067885;28;20635;-48
2022/04/10 00:54:21;;;;;;;2.37;1.77;;;16.60;52.50;17.60;100970.00;;;;5067174;28;20169;-48
2022/04/10 00:56:47;;;;;;;2.00;1.90;;;16.70;52.50;17.60;100976.00;;;;5066175;28;20163;-49
2022/04/10 00:59:13;;;;;;;1.63;1.53;;;16.70;52.40;17.60;100968.00;;;;5067616;28;20180;-49
2022/04/10 01:01:40;;;;;;;1.80;1.70;;;16.60;52.30;17.60;100978.00;;;;5067210;28;20231;-49
2022/04/10 01:04:06;;;;;;;1.90;1.80;;;16.70;52.30;17.60;100974.00;;;;5067662;28;20408;-49
2022/04/10 01:06:32;;;;;;;1.70;1.60;;;16.70;52.30;17.60;100984.00;;;;5066539;28;20457;-49
2022/04/10 01:08:58;;;;;;;2.03;1.80;;;16.60;52.30;17.60;100967.00;;;;5068114;28;20166;-49
2022/04/10 01:11:24;;;;;;;2.00;1.80;;;16.60;52.20;17.60;100974.00;;;;5066370;28;20239;-49
2022/04/10 01:13:49;;;;;;;1.63;1.53;;;16.60;52.20;17.60;100973.00;;;;5067459;28;20575;-49
2022/04/10 01:16:15;;;;;;;1.73;1.60;;;16.60;52.20;17.40;100971.00;;;;5065928;28;20363;-48
2022/04/10 01:18:41;;;;;;;3.47;1.70;;;16.60;52.20;17.60;100976.00;;;;5066439;28;20174;-48
2022/04/10 01:21:07;;;;;;;1.70;1.60;;;16.60;52.30;17.60;100980.00;;;;5066256;28;20200;-48
2022/04/10 01:23:33;;;;;;;1.90;1.70;;;16.50;52.10;17.60;100978.00;;;;5067947;28;20634;-48
2022/04/10 01:25:58;;;;;;;1.80;1.70;;;16.50;52.20;17.60;100982.00;;;;5065923;28;20633;-48
2022/04/10 01:28:24;;;;;;;1.80;1.70;;;16.50;52.20;17.60;100978.00;;;;5067424;28;20180;-49
2022/04/10 01:30:50;;;;;;;2.33;1.70;;;16.50;52.10;17.60;100914.00;;;;5067205;28;20340;-48
2022/04/10 01:33:15;;;;;;;1.93;1.83;;;16.50;52.20;17.50;100975.00;;;;5067787;28;20170;-49
2022/04/10 01:35:41;;;;;;;2.00;1.80;;;16.50;52.20;17.50;100977.00;;;;5067564;28;20174;-48
2022/04/10 01:38:07;;;;;;;1.70;1.60;;;16.40;52.10;17.50;100982.00;;;;5065986;28;20654;-49
2022/04/10 01:40:33;;;;;;;1.70;1.60;;;16.40;52.10;17.50;100980.00;;;;5066246;28;20225;-48
2022/04/10 01:42:59;;;;;;;2.00;1.67;;;16.40;52.10;17.50;100975.00;;;;5067458;28;20582;-50
2022/04/10 01:45:25;;;;;;;2.10;1.83;;;16.40;52.10;17.50;100970.00;;;;5067105;28;20443;-48
2022/04/10 01:47:51;;;;;;;1.80;1.70;;;16.40;52.70;17.50;100978.00;;;;5066915;28;20249;-49
2022/04/10 01:50:17;;;;;;;1.70;1.60;;;16.30;52.90;17.40;100955.00;;;;5066135;28;20628;-52
2022/04/10 01:52:43;;;;;;;1.70;1.60;;;16.20;52.90;17.40;100972.00;;;;5067361;28;20205;-49
2022/04/10 01:55:09;;;;;;;1.97;1.80;;;16.20;52.90;17.40;100964.00;;;;5067599;28;20170;-48
2022/04/10 01:57:35;;;;;;;1.90;1.80;;;16.20;53.00;17.40;100974.00;;;;5067059;28;20239;-50
2022/04/10 02:00:00;;;;;;;1.70;1.60;;;16.20;53.00;17.40;100965.00;;;;5066954;28;20227;-48
2022/04/10 02:02:26;;;;;;;1.70;1.60;;;16.10;52.90;17.30;100967.00;;;;5066788;28;20192;-49
2022/04/10 02:04:52;;;;;;;1.87;1.67;;;16.20;52.90;17.30;100960.00;;;;5068727;28;20270;-48
2022/04/10 02:07:18;;;;;;;1.60;1.50;;;16.10;52.80;17.30;100961.00;;;;5070976;28;20165;-49
2022/04/10 02:09:44;;;;;;;1.80;1.70;;;16.20;52.70;17.30;100971.00;;;;5070772;28;20189;-49
2022/04/10 02:12:10;;;;;;;1.60;1.50;;;16.20;52.60;17.30;100961.00;;;;5070685;28;20177;-48
2022/04/10 02:14:36;;;;;;;1.93;1.80;;;16.10;52.50;17.30;100972.00;;;;5071007;28;20178;-48
2022/04/10 02:17:01;;;;;;;1.80;1.70;;;16.10;52.50;17.30;100976.00;;;;5070435;28;20597;-48
2022/04/10 02:19:27;;;;;;;1.60;1.50;;;16.20;52.60;17.30;100979.00;;;;5070697;28;20170;-49
2022/04/10 02:21:55;;;;;;;1.90;1.80;;;16.10;52.40;17.20;100977.00;;;;5069346;28;20185;-48
2022/04/10 02:24:20;;;;;;;1.80;1.70;;;16.10;52.40;17.20;100981.00;;;;5070703;28;20227;-49
2022/04/10 02:26:46;;;;;;;1.97;1.53;;;16.10;52.40;17.20;100970.00;;;;5070540;28;20618;-48
2022/04/10 02:29:12;;;;;;;1.70;1.60;;;16.00;52.50;17.20;100979.00;;;;5070771;28;20174;-48
2022/04/10 02:31:37;;;;;;;1.80;1.70;;;16.00;53.20;17.20;100980.00;;;;5070382;28;20199;-48
2022/04/10 02:34:03;;;;;;;2.30;1.90;;;16.00;52.40;17.10;100985.00;;;;5071042;28;20174;-49
2022/04/10 02:36:29;;;;;;;1.90;1.80;;;15.90;52.60;17.10;100988.00;;;;5071450;28;20219;-49
2022/04/10 02:38:54;;;;;;;1.73;1.63;;;15.90;53.20;17.10;100984.00;;;;5070330;28;20213;-49
2022/04/10 02:41:20;;;;;;;1.60;1.50;;;15.90;52.60;17.10;100991.00;;;;5070421;28;20202;-48
2022/04/10 02:43:46;;;;;;;1.60;1.50;;;15.90;52.60;17.10;100985.00;;;;5070408;28;20224;-49
2022/04/10 02:46:11;;;;;;;1.80;1.70;;;15.90;52.50;17.00;100983.00;;;;5069885;28;20239;-48
2022/04/10 02:48:37;;;;;;;1.77;1.67;;;15.90;52.50;17.00;100987.00;;;;5070264;28;20197;-48
2022/04/10 02:51:03;;;;;;;2.00;1.60;;;15.90;52.50;17.00;100994.00;;;;5071260;28;20303;-49
2022/04/10 02:53:30;;;;;;;1.70;1.60;;;15.80;52.50;17.00;100998.00;;;;5072404;28;20182;-48
2022/04/10 02:55:55;;;;;;;1.70;1.60;;;15.80;52.50;17.00;100996.00;;;;5069616;28;20177;-49
2022/04/10 02:58:21;;;;;;;1.70;1.60;;;15.80;52.60;17.00;101002.00;;;;5069366;28;20227;-48
2022/04/10 03:00:47;;;;;;;1.93;1.80;;;15.70;52.80;17.00;100998.00;;;;5071035;28;20209;-48
2022/04/10 03:03:13;;;;;;;2.27;1.60;;;15.80;52.80;16.90;100998.00;;;;5071900;28;20261;-48
2022/04/10 03:05:39;;;;;;;1.73;1.63;;;15.70;52.80;16.90;101007.00;;;;5070940;28;20253;-48
2022/04/10 03:08:05;;;;;;;1.67;1.57;;;15.70;52.90;16.90;101006.00;;;;5069619;28;20198;-49
2022/04/10 03:10:31;;;;;;;1.60;1.50;;;15.70;53.00;16.90;101016.00;;;;5070022;28;20202;-49
2022/04/10 03:12:56;;;;;;;1.70;1.60;;;15.60;53.10;16.80;101015.00;;;;5070627;28;20166;-49
2022/04/10 03:15:22;;;;;;;1.80;1.70;;;15.70;53.00;16.80;101019.00;;;;5069053;28;20317;-49
2022/04/10 03:17:48;;;;;;;1.73;1.60;;;15.60;53.10;16.80;101020.00;;;;5068744;28;20193;-49
2022/04/10 03:20:13;;;;;;;1.73;1.63;;;15.50;53.00;16.70;101017.00;;;;5069789;28;20201;-48
2022/04/10 03:22:40;;;;;;;1.80;1.70;;;15.50;53.10;16.80;101029.00;;;;5070198;28;20576;-47
2022/04/10 03:25:06;;;;;;;1.70;1.60;;;15.60;53.10;16.70;101024.00;;;;5069998;28;20298;-48
2022/04/10 03:27:32;;;;;;;1.80;1.70;;;15.50;53.00;16.70;101026.00;;;;5070080;28;20307;-49
2022/04/10 03:29:57;;;;;;;2.40;1.70;;;15.50;53.30;16.70;101028.00;;;;5069689;28;20655;-48
2022/04/10 03:32:23;;;;;;;3.00;1.63;;;15.50;53.30;16.60;101029.00;;;;5070762;28;20173;-49
2022/04/10 03:34:49;;;;;;;5.33;1.90;;;15.40;53.30;16.60;101023.00;;;;5075532;28;20189;-49
2022/04/10 03:37:14;;;;;;;4.80;1.80;;;15.30;54.00;16.60;101033.00;;;;5077224;28;20185;-48
2022/04/10 03:39:40;;;;;;;3.07;1.70;;;15.40;53.20;16.60;101034.00;;;;5079494;28;20201;-48
2022/04/10 03:42:06;;;;;;;1.97;1.47;;;15.40;53.10;16.60;101031.00;;;;5079345;28;20178;-48
2022/04/10 03:44:32;;;;;;;3.50;1.80;;;15.40;53.20;16.60;101030.00;;;;5079950;28;20197;-49
2022/04/10 03:46:58;;;;;;;5.77;1.80;;;15.40;53.00;16.60;101040.00;;;;5073337;28;20173;-49
2022/04/10 03:49:23;;;;;;;2.20;1.60;;;15.40;52.90;16.60;101038.00;;;;5069465;28;20553;-49
2022/04/10 03:51:49;;;;;;;2.57;1.73;;;15.40;53.00;16.50;101051.00;;;;5067915;28;20177;-48
2022/04/10 03:54:15;;;;;;;2.70;1.80;;;15.40;52.90;16.50;101054.00;;;;5069545;28;20170;-48
2022/04/10 03:56:41;;;;;;;3.97;1.73;;;15.40;52.80;16.50;101045.00;;;;5062415;28;20189;-48
2022/04/10 03:59:06;;;;;;;2.70;1.70;;;15.40;52.70;16.50;101051.00;;;;5060756;28;20678;-48
2022/04/10 04:01:32;;;;;;;1.77;1.67;;;15.40;52.60;16.50;101044.00;;;;5068093;28;20198;-48
2022/04/10 04:03:58;;;;;;;3.80;1.70;;;15.40;52.60;16.50;101051.00;;;;5068613;28;20172;-48
2022/04/10 04:06:24;;;;;;;1.90;1.40;;;15.40;52.60;16.50;101051.00;;;;5071863;28;20223;-48
2022/04/10 04:08:49;;;;;;;2.23;1.63;;;15.40;52.60;16.50;101063.00;;;;5067352;28;20172;-48
2022/04/10 04:11:15;;;;;;;1.40;1.30;;;15.40;52.60;16.50;101063.00;;;;5068791;28;20506;-48
2022/04/10 04:13:41;;;;;;;1.90;1.53;;;15.30;52.40;16.50;101055.00;;;;5068079;28;20873;-49
2022/04/10 04:16:07;;;;;;;2.03;1.70;;;15.30;52.30;16.40;101060.00;;;;5068046;28;20228;-48
2022/04/10 04:18:33;;;;;;;2.53;2.00;;;15.30;52.20;16.40;101058.00;;;;5068918;28;20166;-48
2022/04/10 04:20:58;;;;;;;2.40;1.90;;;15.30;52.10;16.40;101065.00;;;;5069026;28;20650;-49
2022/04/10 04:23:24;;;;;;;2.83;1.87;;;15.30;52.10;16.40;101057.00;;;;5069700;28;20201;-48
2022/04/10 04:25:50;;;;;;;2.47;2.00;;;15.30;52.00;16.30;101073.00;;;;5067801;28;20198;-48
2022/04/10 04:28:16;;;;;;;2.80;1.90;;;15.30;51.90;16.30;101072.00;;;;5067582;28;20173;-49
2022/04/10 04:30:42;;;;;;;2.13;1.90;;;15.30;51.90;16.30;101081.00;;;;5068615;28;20193;-49
2022/04/10 04:33:08;;;;;;;2.23;2.03;;;15.20;51.70;16.30;101080.00;;;;5068348;28;20219;-48
2022/04/10 04:35:34;;;;;;;2.13;1.93;;;15.20;51.70;16.30;101077.00;;;;5068315;28;20177;-49
2022/04/10 04:38:00;;;;;;;3.10;2.13;;;15.20;51.60;16.30;101078.00;;;;5068352;28;20770;-48
2022/04/10 04:40:25;;;;;;;4.00;2.00;;;15.20;51.70;16.30;101083.00;;;;5068222;28;20205;-48
2022/04/10 04:42:51;;;;;;;4.87;2.20;;;15.20;52.30;16.20;101100.00;;;;5068070;28;20173;-48
2022/04/10 04:45:18;;;;;;;2.77;2.13;;;15.10;51.60;16.20;101092.00;;;;5067279;28;20250;-48
2022/04/10 04:47:44;;;;;;;3.10;2.17;;;15.10;51.60;16.20;101093.00;;;;5067786;28;20669;-48
2022/04/10 04:50:10;;;;;;;5.17;2.40;;;15.10;51.70;16.20;101096.00;;;;5067758;28;20197;-48
2022/04/10 04:52:36;;;;;;;4.77;2.20;;;15.00;51.50;16.20;101092.00;;;;5066943;28;20219;-49
2022/04/10 04:55:02;;;;;;;3.93;2.30;;;15.10;51.70;16.20;101095.00;;;;5076684;28;20169;-48
2022/04/10 04:57:27;;;;;;;5.20;2.40;;;15.00;51.60;16.20;101100.00;;;;5076068;28;20204;-50
2022/04/10 04:59:53;;;;;;;5.20;2.17;;;15.00;51.60;16.10;101096.00;;;;5080916;28;20662;-48
2022/04/10 05:02:19;;;;;;;2.77;2.23;;;15.00;51.60;16.10;101117.00;;;;5078652;28;20173;-49
2022/04/10 05:04:44;;;;;;;3.20;2.20;;;15.00;51.60;16.10;101119.00;;;;5074142;28;20205;-48
2022/04/10 05:07:11;;;;;;;2.30;2.10;;;15.00;51.60;16.10;101117.00;;;;5071279;28;20285;-48
2022/04/10 05:09:37;;;;;;;3.30;1.90;;;15.00;51.60;16.10;101110.00;;;;5067949;28;20173;-48
2022/04/10 05:12:03;;;;;;;3.80;2.23;;;14.90;51.50;16.10;101129.00;;;;5067664;28;20165;-48
2022/04/10 05:14:28;;;;;;;2.93;2.07;;;14.90;51.50;16.10;101126.00;;;;5069204;28;20169;-49
2022/04/10 05:16:54;;;;;;;4.83;2.10;;;14.90;51.60;16.00;101112.00;;;;5070270;28;20170;-48
2022/04/10 05:19:21;;;;;;;3.90;2.20;;;14.90;51.60;16.00;101127.00;;;;5066680;28;20627;-49
2022/04/10 05:21:47;;;;;;;3.87;2.00;;;14.90;51.60;16.00;101115.00;;;;5067440;28;20681;-48
2022/04/10 05:24:13;;;;;;;2.60;2.00;;;14.80;51.50;16.00;101131.00;;;;5067403;28;20173;-49
2022/04/10 05:26:38;;;;;;;2.80;2.17;;;14.90;51.60;16.00;101126.00;;;;5066537;28;20202;-48
2022/04/10 05:29:04;;;;;;;2.20;2.00;;;14.80;51.60;16.00;101116.00;;;;5067650;28;20593;-48
2022/04/10 05:31:30;;;;;;;2.50;2.00;;;14.80;51.60;15.90;101108.00;;;;5066974;28;20276;-48
2022/04/10 05:33:55;;;;;;;2.90;1.90;;;14.80;51.60;15.90;101125.00;;;;5067351;28;20629;-48
2022/04/10 05:36:21;;;;;;;3.50;1.70;;;14.80;51.70;15.90;101126.00;;;;5066348;28;20184;-48
2022/04/10 05:38:47;;;;;;;2.70;1.80;;;14.80;51.70;15.90;101130.00;;;;5066576;28;20216;-49
2022/04/10 05:41:13;;;;;;;3.43;2.30;;;14.80;51.60;15.90;101137.00;;;;5066954;28;20205;-49
2022/04/10 05:43:39;;;;;;;2.30;1.90;;;14.70;51.60;15.90;101064.00;;;;5067133;28;20170;-49
2022/04/10 05:46:04;;;;;;;2.80;2.10;;;14.70;51.60;15.90;101131.00;;;;5066298;28;20205;-49
2022/04/10 05:48:31;;;;;;;4.20;2.20;;;14.70;51.60;15.80;101131.00;;;;5067385;28;20166;-49
2022/04/10 05:50:57;;;;;;;2.47;2.00;;;14.70;51.60;15.80;101135.00;;;;5067108;28;20592;-48
2022/04/10 05:53:24;;;;;;;3.30;1.80;;;14.70;51.60;15.80;101142.00;;;;5066083;28;20227;-48
2022/04/10 05:55:49;;;;;;;2.50;2.00;;;14.70;51.60;15.80;101145.00;;;;5066161;28;20199;-49
2022/04/10 05:58:16;;;;;;;4.27;1.80;;;14.70;51.60;15.80;101154.00;;;;5066659;28;20650;-49
2022/04/10 06:00:42;;;;;;;3.30;2.00;;;14.70;52.30;15.70;101146.00;;;;5067126;28;20639;-48
2022/04/10 06:03:08;;;;;;;2.00;1.80;;;14.60;51.60;15.70;101159.00;;;;5077873;28;20231;-48
2022/04/10 06:05:33;;;;;;;2.20;1.90;;;14.60;51.60;15.70;101155.00;;;;5081478;28;20201;-48
2022/04/10 06:07:59;;;;;;;2.00;1.80;;;14.60;51.60;15.70;101149.00;;;;5075987;28;20174;-49
2022/04/10 06:10:25;;;;;;;1.97;1.80;;;14.60;51.60;15.70;101155.00;;;;5067699;28;20202;-49
2022/04/10 06:12:50;;;;;;;2.03;1.93;;;14.60;51.60;15.70;101155.00;;;;5067386;28;20172;-48
2022/04/10 06:15:19;;;;;;;1.80;1.70;;;14.60;51.60;15.70;101159.00;;;;5067369;28;20178;-49
2022/04/10 06:17:45;;;;;;;1.90;1.80;;;14.60;51.60;15.60;101169.00;;;;5066385;28;20254;-48
2022/04/10 06:20:11;;;;;;;1.73;1.63;;;14.60;51.60;15.70;101167.00;;;;5067059;28;20205;-49
2022/04/10 06:22:37;;;;;;;1.80;1.70;;;14.60;51.60;15.60;101173.00;;;;5065730;28;20197;-52
2022/04/10 06:25:03;;;;;;;1.77;1.67;;;14.60;51.60;15.60;101171.00;;;;5066632;28;20198;-49
2022/04/10 06:27:29;;;;;;;1.80;1.70;;;14.50;51.50;15.60;101173.00;;;;5066636;28;20622;-49
2022/04/10 06:29:54;;;;;;;1.70;1.60;;;14.50;51.50;15.60;101171.00;;;;5066872;28;20197;-48
2022/04/10 06:32:20;;;;;;;1.70;1.60;;;14.50;51.50;15.60;101178.00;;;;5066917;28;20181;-48
2022/04/10 06:34:46;;;;;;;2.60;2.00;;;14.50;51.50;15.50;101111.00;;;;5067042;28;20651;-48
2022/04/10 06:37:12;;;;;;;2.60;1.80;;;14.50;51.50;15.50;101176.00;;;;5066282;28;20173;-49
2022/04/10 06:39:38;;;;;;;1.77;1.67;;;14.50;51.50;15.50;101179.00;;;;5064978;28;20673;-48
2022/04/10 06:42:08;;;;;;;2.20;1.70;;;14.50;51.50;15.50;101180.00;;;;5066954;28;20178;-48
2022/04/10 06:44:33;;;;;;;1.97;1.87;;;14.40;51.60;15.50;101177.00;;;;5066280;28;20253;-49
2022/04/10 06:46:59;;;;;;;2.27;1.93;;;14.40;51.40;15.50;101186.00;;;;5066152;28;20627;-47
2022/04/10 06:49:25;;;;;;;1.80;1.70;;;14.40;51.50;15.50;101190.00;;;;5066762;28;20173;-49
2022/04/10 06:51:50;;;;;;;2.03;1.80;;;14.50;51.60;15.50;101195.00;;;;5071005;28;20174;-48
2022/04/10 06:54:16;;;;;;;1.90;1.80;;;14.40;51.50;15.50;101131.00;;;;5070104;28;20200;-48
2022/04/10 06:56:42;;;;;;;2.10;1.90;;;14.40;51.50;15.50;101195.00;;;;5068851;28;20701;-48
2022/04/10 06:59:07;;;;;;;1.90;1.80;;;14.40;51.50;15.40;101188.00;;;;5070945;28;20158;-48
2022/04/10 07:01:33;;;;;;;1.63;1.53;;;14.40;51.50;15.40;101194.00;;;;5070160;28;20216;-48
2022/04/10 07:04:00;;;;;;;2.00;1.80;;;14.30;51.50;15.40;101192.00;;;;5070367;28;20630;-49
2022/04/10 07:06:26;;;;;;;2.00;1.80;;;14.40;51.60;15.40;101192.00;;;;5069475;28;20247;-48
2022/04/10 07:08:52;;;;;;;2.37;1.90;;;14.30;51.60;15.40;101190.00;;;;5069912;28;20178;-49
2022/04/10 07:11:18;;;;;;;1.83;1.73;;;14.30;51.60;15.40;101188.00;;;;5070176;28;20199;-48
2022/04/10 07:13:43;;;;;;;1.80;1.70;;;14.30;51.60;15.40;101204.00;;;;5069736;28;20550;-48
2022/04/10 07:16:09;;;;;;;2.13;2.00;;;14.30;51.60;15.40;101198.00;;;;5069523;28;20173;-48
2022/04/10 07:18:35;;;;;;;1.60;1.50;;;14.30;51.60;15.30;101208.00;;;;5069049;28;20227;-48
2022/04/10 07:21:00;;;;;;;1.90;1.80;;;14.30;51.60;15.30;101211.00;;;;5070053;28;20674;-49
2022/04/10 07:23:45;;;;;;;1.90;1.80;;;14.30;51.70;15.30;101203.00;;;;5070226;28;20185;-48
2022/04/10 07:26:13;;;;;;;1.80;1.70;;;14.30;51.60;15.30;101211.00;;;;5069077;28;20362;-49
2022/04/10 07:28:38;;;;;;;1.80;1.70;;;14.30;51.70;15.30;101216.00;;;;5069434;28;20438;-48
2022/04/10 07:31:08;;;;;;;1.90;1.80;;;14.30;51.70;15.30;101214.00;;;;5068896;28;20201;-48
2022/04/10 07:33:34;;;;;;;1.97;1.77;;;14.30;51.80;15.30;101221.00;;;;5068447;28;20224;-49
2022/04/10 07:35:59;;;;;;;1.90;1.80;;;14.30;51.80;15.30;101227.00;;;;5067858;28;20558;-49
2022/04/10 07:38:25;;;;;;;1.80;1.70;;;14.30;51.80;15.30;101210.00;;;;5069421;28;20173;-49
2022/04/10 07:40:51;;;;;;;1.70;1.60;;;14.20;51.70;15.30;101212.00;;;;5068335;28;20204;-49
2022/04/10 07:43:17;;;;;;;1.80;1.70;;;14.20;51.70;15.30;101214.00;;;;5069549;28;20173;-49
2022/04/10 07:48:27;;;;;;;1.90;1.80;;;14.20;51.80;15.30;101237.00;;;;5070405;28;20249;-48
2022/04/10 07:50:52;;;;;;;1.83;1.70;;;14.20;51.90;15.30;101225.00;;;;5070079;28;20268;-48
2022/04/10 07:53:18;;;;;;;3.37;1.97;;;14.20;51.90;15.30;101231.00;;;;5064634;28;20349;-50
2022/04/10 07:55:44;;;;;;;6.73;2.13;;;14.20;51.90;15.30;101227.00;;;;5057963;28;20194;-48
2022/04/10 07:58:10;;;;;;;8.33;2.27;;;14.20;52.30;15.20;101233.00;;;;5048725;28;20741;-48
2022/04/10 08:00:35;;;;;;;8.57;2.50;;;14.10;52.80;15.20;101233.00;;;;5049234;28;20206;-47
2022/04/10 08:03:01;;;;;;;9.37;2.70;;;14.10;52.90;15.20;101233.00;;;;5048624;28;20165;-47
2022/04/10 08:05:27;;;;;;;11.47;2.90;;;14.10;53.00;15.20;101234.00;;;;5047896;28;20799;-48
2022/04/10 08:07:54;;;;;;;9.33;2.60;;;14.10;53.30;15.20;101249.00;;;;5047666;28;20163;-48
2022/04/10 08:10:20;;;;;;;9.47;2.50;;;14.10;53.50;15.20;101249.00;;;;5048039;28;20194;-48
2022/04/10 08:12:45;;;;;;;8.13;2.70;;;14.10;53.50;15.20;101240.00;;;;5048156;28;20204;-48
2022/04/10 08:15:11;;;;;;;9.20;2.50;;;14.10;53.50;15.10;101249.00;;;;5048549;28;20178;-49
2022/04/10 08:17:38;;;;;;;6.87;2.40;;;14.00;53.90;15.10;101250.00;;;;5048606;28;20289;-49
2022/04/10 08:20:05;;;;;;;9.87;2.90;;;14.00;53.90;14.80;101250.00;;;;5053984;28;20221;-49
2022/04/10 08:22:34;;;;;;;9.00;2.50;;;14.00;54.00;15.10;101261.00;;;;5054562;28;20182;-49
2022/04/10 08:25:06;;;;;;;8.50;2.57;;;14.00;54.90;15.00;101258.00;;;;5054327;28;20201;-49
2022/04/10 08:27:31;;;;;;;8.70;2.70;;;13.90;54.70;15.00;101258.00;;;;5052532;28;20170;-50
2022/04/10 08:29:57;;;;;;;8.70;2.50;;;14.00;55.00;15.00;101255.00;;;;5048585;28;20228;-49
2022/04/10 08:32:23;;;;;;;11.77;2.23;;;14.00;55.50;15.00;101255.00;;;;5046484;28;20212;-49
2022/04/10 08:34:49;;;;;;;6.20;3.40;;;14.00;54.90;15.00;101171.00;;;;5060743;28;20273;-49
2022/04/10 08:37:14;;;;;;;12.80;8.10;;;14.00;54.80;15.00;101262.00;;;;5069187;28;20588;-49
2022/04/10 08:39:40;;;;;;;15.27;8.90;;;14.00;55.00;15.00;101256.00;;;;5069201;28;20181;-49
2022/04/10 08:42:06;;;;;;;10.57;7.53;;;14.00;55.00;15.00;101269.00;;;;5068184;28;20511;-49
2022/04/10 08:44:32;;;;;;;8.57;6.30;;;14.00;55.30;15.00;101265.00;;;;5069433;28;20225;-49
2022/04/10 08:46:58;;;;;;;12.80;6.33;;;14.10;55.70;15.10;101249.00;;;;5068755;28;20177;-49
2022/04/10 08:49:25;;;;;;;8.23;4.87;;;14.30;55.60;15.10;101263.00;;;;5072143;28;20170;-51
2022/04/10 08:51:52;;;;;;;9.30;4.00;;;14.50;55.50;15.20;101262.00;;;;5081403;28;20181;-48
2022/04/10 08:54:19;;;;;;;5.20;3.57;;;14.70;55.50;15.30;101257.00;;;;5080280;28;20691;-51
2022/04/10 08:56:45;;;;;;;5.23;3.43;;;15.00;55.20;15.50;101267.00;;;;5072377;28;20265;-47
2022/04/10 08:59:11;;;;;;;8.40;3.20;;;15.40;55.10;15.70;101265.00;;;;5068186;28;20248;-48
2022/04/10 09:01:37;;;;;;;4.00;2.60;;;15.70;54.50;15.90;101271.00;;;;5069307;28;20206;-48
2022/04/10 09:04:02;;;;;;;3.60;2.67;;;16.00;54.00;16.10;101271.00;;;;5066400;28;20170;-48
2022/04/10 09:06:28;;;;;;;5.20;2.30;;;16.30;53.70;16.30;101276.00;;;;5068058;28;20205;-49
2022/04/10 09:09:11;;;;;;;3.50;2.20;;;16.70;53.30;16.50;101275.00;;;;5069600;28;20523;-50
2022/04/10 09:11:37;;;;;;;6.47;2.07;;;16.90;52.80;16.70;101268.00;;;;5069954;28;20594;-49
2022/04/10 09:14:03;;;;;;;4.20;2.00;;;17.00;52.90;16.90;101271.00;;;;5049821;28;20158;-48
2022/04/10 09:16:28;;;;;;;3.07;2.10;;;17.20;53.00;17.10;101266.00;;;;5057433;28;20173;-49
2022/04/10 09:19:08;;;;;;;3.97;2.00;;;17.40;52.70;17.20;101267.00;;;;5067575;28;20264;-49
2022/04/10 09:21:39;;;;;;;2.83;1.87;;;17.40;52.80;17.40;101279.00;;;;4990721;28;20217;-50
2022/04/10 09:24:09;;;;;;;3.17;1.70;;;17.50;52.60;17.50;101270.00;;;;5070322;28;20173;-48
2022/04/10 09:26:52;;;;;;;4.47;1.90;;;17.70;52.70;17.60;101267.00;;;;5070022;28;20302;-49
2022/04/10 09:29:22;;;;;;;3.47;1.70;;;17.70;52.70;17.70;101274.00;;;;5068901;28;20267;-49
2022/04/10 09:31:48;;;;;;;3.83;1.83;;;17.90;52.80;17.80;101272.00;;;;5069987;28;20165;-48
2022/04/10 09:34:16;;;;;;;5.57;2.00;;;18.00;53.20;18.00;101274.00;;;;5068481;28;20170;-50
2022/04/10 09:36:46;;;;;;;5.73;1.90;;;18.10;53.60;18.00;101260.00;;;;5068549;28;20219;-48
2022/04/10 09:39:31;;;;;;;3.40;1.77;;;18.10;53.50;18.20;101261.00;;;;5068276;28;20218;-49
2022/04/10 09:42:09;;;;;;;4.17;2.00;;;18.20;53.40;18.30;101255.00;;;;5069980;28;20181;-49
2022/04/10 09:44:36;;;;;;;3.87;1.70;;;18.30;53.60;18.30;101257.00;;;;5069026;28;20165;-49
2022/04/10 09:47:09;;;;;;;2.00;1.70;;;18.40;53.70;18.40;101272.00;;;;5068583;28;20177;-49
2022/04/10 09:49:39;;;;;;;1.87;1.70;;;18.40;53.50;18.50;101263.00;;;;5069030;28;20175;-49
2022/04/10 09:52:07;;;;;;;4.20;1.83;;;18.40;53.60;18.60;101274.00;;;;5069413;28;20235;-49
2022/04/10 09:54:42;;;;;;;2.30;1.70;;;18.50;53.50;18.60;101268.00;;;;5068692;28;20163;-48
2022/04/10 09:57:17;;;;;;;3.97;1.53;;;18.50;53.60;18.70;101270.00;;;;5068471;28;20170;-49
2022/04/10 09:59:45;;;;;;;4.67;1.80;;;18.50;53.70;18.70;101264.00;;;;5067029;28;20544;-50
2022/04/10 10:02:12;;;;;;;2.47;1.50;;;18.50;53.70;18.80;101266.00;;;;5068242;28;20601;-49
2022/04/10 10:04:38;;;;;;;3.17;1.87;;;18.60;53.90;18.80;101256.00;;;;5068448;28;20221;-48
2022/04/10 10:07:08;;;;;;;3.77;1.70;;;18.50;53.80;18.80;101266.00;;;;5066862;28;20233;-49
2022/04/10 10:09:33;;;;;;;4.50;1.80;;;18.60;53.90;18.90;101274.00;;;;5068497;28;20550;-48
2022/04/10 10:12:00;;;;;;;2.90;1.70;;;18.60;54.00;18.90;101263.00;;;;5066922;28;20171;-48
2022/04/10 10:14:29;;;;;;;1.70;1.60;;;18.60;54.00;18.90;101265.00;;;;5069139;28;20166;-49
2022/04/10 10:16:56;;;;;;;3.33;1.63;;;18.50;54.00;18.90;101267.00;;;;5068702;28;20165;-48
2022/04/10 10:19:23;;;;;;;1.83;1.40;;;18.50;54.10;18.90;101262.00;;;;5067108;28;20265;-48
2022/04/10 10:21:49;;;;;;;2.83;1.50;;;18.50;54.10;18.90;101256.00;;;;5002344;28;20182;-48
2022/04/10 10:24:15;;;;;;;1.77;1.33;;;18.50;54.10;19.00;101262.00;;;;5055019;28;20713;-49
2022/04/10 10:26:52;;;;;;;2.87;1.67;;;18.50;54.00;19.00;101258.00;;;;5041570;28;20697;-49
2022/04/10 10:29:44;;;;;;;5.50;1.90;;;18.50;53.90;19.00;101259.00;;;;5081791;28;20235;-49
2022/04/10 10:32:33;;;;;;;4.20;1.60;;;18.50;53.80;19.00;101227.00;;;;5063231;28;20182;-49
2022/04/10 10:34:59;;;;;;;1.77;1.47;;;18.50;54.20;19.00;101260.00;;;;5062613;28;20317;-49
2022/04/10 10:37:31;;;;;;;7.43;1.47;;;18.50;54.40;19.00;101244.00;;;;5075637;28;20171;-48
2022/04/10 10:39:58;;;;;;;2.93;1.60;;;18.50;54.80;19.00;101244.00;;;;5071698;28;20199;-48
2022/04/10 10:42:24;;;;;;;2.73;1.50;;;18.50;54.80;19.00;101240.00;;;;5072449;28;20167;-47
2022/04/10 10:44:50;;;;;;;2.30;1.50;;;18.50;54.60;19.00;101238.00;;;;5072274;28;20197;-48
2022/04/10 10:47:22;;;;;;;5.90;1.60;;;18.50;54.40;19.00;101233.00;;;;5071584;28;20174;-48